Whitehall, Wisconsin
Current Conditions -  °F | °C
As of 11:55 AM on Saturday 25 Oct 2014 (Local Time) from KBCK Reporting Station
Clear Clear  
Wind Chill: 62°   Ceiling: Unl
Heat Index: 62°   Visibility: 10mi
Dew Point: 29°   Wind: 13mph
Humidity: 29%   Direction: 280°W
Pressure: 29.98"   Gusts: 20mph
Location:  44.37°N, 91.32°W
Report Text: KBCK 251655Z AUTO 28011G17KT 260V320 10SM CLR 17/M02 A2998 RMK AO2 T01661018
Loading
Personal Weather Stations






























Interactive Weather Map
Tropical Storm Tracking
New forecast layout! Learn more

10-Day Weather Forecast

Advertisements
Track Severe Weather on mobile